sensor_id;sensor_type;location;lat;lon;timestamp;P1;durP1;ratioP1;P2;durP2;ratioP2
63286;SDS011;49410;55.708;37.522;2022-07-23T00:01:16;12.02;;;4.75;;
63286;SDS011;49410;55.708;37.522;2022-07-23T00:03:42;11.60;;;5.00;;
63286;SDS011;49410;55.708;37.522;2022-07-23T00:06:07;9.18;;;4.63;;
63286;SDS011;49410;55.708;37.522;2022-07-23T00:08:33;10.93;;;5.03;;
63286;SDS011;49410;55.708;37.522;2022-07-23T00:10:58;8.93;;;4.35;;
63286;SDS011;49410;55.708;37.522;2022-07-23T00:13:25;8.60;;;4.60;;
63286;SDS011;49410;55.708;37.522;2022-07-23T00:15:51;9.73;;;4.47;;
63286;SDS011;49410;55.708;37.522;2022-07-23T00:18:16;8.43;;;4.35;;
63286;SDS011;49410;55.708;37.522;2022-07-23T00:20:42;11.52;;;4.65;;
63286;SDS011;49410;55.708;37.522;2022-07-23T00:23:07;10.90;;;4.85;;
63286;SDS011;49410;55.708;37.522;2022-07-23T00:25:33;11.05;;;4.90;;
63286;SDS011;49410;55.708;37.522;2022-07-23T00:27:59;9.00;;;4.43;;
63286;SDS011;49410;55.708;37.522;2022-07-23T00:30:25;10.60;;;4.65;;
63286;SDS011;49410;55.708;37.522;2022-07-23T00:32:52;11.68;;;4.75;;
63286;SDS011;49410;55.708;37.522;2022-07-23T00:35:19;11.50;;;4.55;;
63286;SDS011;49410;55.708;37.522;2022-07-23T00:37:45;8.20;;;4.35;;
63286;SDS011;49410;55.708;37.522;2022-07-23T00:40:11;9.93;;;4.78;;
63286;SDS011;49410;55.708;37.522;2022-07-23T00:42:38;8.75;;;4.38;;
63286;SDS011;49410;55.708;37.522;2022-07-23T00:45:04;11.73;;;4.97;;
63286;SDS011;49410;55.708;37.522;2022-07-23T00:47:30;8.57;;;4.68;;
63286;SDS011;49410;55.708;37.522;2022-07-23T00:49:55;8.70;;;4.43;;
63286;SDS011;49410;55.708;37.522;2022-07-23T00:52:21;11.48;;;4.60;;
63286;SDS011;49410;55.708;37.522;2022-07-23T00:54:47;10.88;;;4.63;;
63286;SDS011;49410;55.708;37.522;2022-07-23T00:57:13;9.57;;;4.47;;
63286;SDS011;49410;55.708;37.522;2022-07-23T00:59:39;8.40;;;4.20;;
63286;SDS011;49410;55.708;37.522;2022-07-23T01:02:05;8.43;;;4.95;;
63286;SDS011;49410;55.708;37.522;2022-07-23T01:04:31;9.55;;;4.82;;
63286;SDS011;49410;55.708;37.522;2022-07-23T01:06:56;12.50;;;5.07;;
63286;SDS011;49410;55.708;37.522;2022-07-23T01:09:22;8.63;;;4.65;;
63286;SDS011;49410;55.708;37.522;2022-07-23T01:11:47;12.57;;;5.30;;
63286;SDS011;49410;55.708;37.522;2022-07-23T01:14:17;9.38;;;5.13;;
63286;SDS011;49410;55.708;37.522;2022-07-23T01:16:44;10.60;;;4.95;;
63286;SDS011;49410;55.708;37.522;2022-07-23T01:19:11;15.45;;;5.05;;
63286;SDS011;49410;55.708;37.522;2022-07-23T01:21:39;11.30;;;4.85;;
63286;SDS011;49410;55.708;37.522;2022-07-23T01:24:06;11.25;;;4.97;;
63286;SDS011;49410;55.708;37.522;2022-07-23T01:26:32;11.98;;;4.97;;
63286;SDS011;49410;55.708;37.522;2022-07-23T01:28:57;11.07;;;4.88;;
63286;SDS011;49410;55.708;37.522;2022-07-23T01:31:23;10.48;;;5.50;;
63286;SDS011;49410;55.708;37.522;2022-07-23T01:33:49;11.60;;;4.35;;
63286;SDS011;49410;55.708;37.522;2022-07-23T01:36:15;10.88;;;4.82;;
63286;SDS011;49410;55.708;37.522;2022-07-23T01:38:40;10.52;;;5.15;;
63286;SDS011;49410;55.708;37.522;2022-07-23T01:41:05;10.43;;;4.82;;
63286;SDS011;49410;55.708;37.522;2022-07-23T01:43:31;10.73;;;4.65;;
63286;SDS011;49410;55.708;37.522;2022-07-23T01:45:57;9.50;;;5.22;;
63286;SDS011;49410;55.708;37.522;2022-07-23T01:48:22;11.88;;;4.90;;
63286;SDS011;49410;55.708;37.522;2022-07-23T01:50:48;9.18;;;4.68;;
63286;SDS011;49410;55.708;37.522;2022-07-23T01:53:13;10.48;;;4.80;;
63286;SDS011;49410;55.708;37.522;2022-07-23T01:55:40;10.93;;;4.72;;
63286;SDS011;49410;55.708;37.522;2022-07-23T01:58:06;12.48;;;4.97;;
63286;SDS011;49410;55.708;37.522;2022-07-23T02:00:32;8.82;;;4.70;;
63286;SDS011;49410;55.708;37.522;2022-07-23T02:02:57;12.68;;;5.25;;
63286;SDS011;49410;55.708;37.522;2022-07-23T02:05:26;9.27;;;5.05;;
63286;SDS011;49410;55.708;37.522;2022-07-23T02:07:54;9.60;;;5.32;;
63286;SDS011;49410;55.708;37.522;2022-07-23T02:10:20;12.18;;;5.22;;
63286;SDS011;49410;55.708;37.522;2022-07-23T02:12:46;9.55;;;4.85;;
63286;SDS011;49410;55.708;37.522;2022-07-23T02:15:11;11.25;;;4.65;;
63286;SDS011;49410;55.708;37.522;2022-07-23T02:17:37;9.23;;;4.88;;
63286;SDS011;49410;55.708;37.522;2022-07-23T02:20:03;11.45;;;5.05;;
63286;SDS011;49410;55.708;37.522;2022-07-23T02:22:30;11.75;;;4.88;;
63286;SDS011;49410;55.708;37.522;2022-07-23T02:24:56;9.05;;;5.00;;
63286;SDS011;49410;55.708;37.522;2022-07-23T02:27:21;11.10;;;5.25;;
63286;SDS011;49410;55.708;37.522;2022-07-23T02:29:47;8.63;;;5.40;;
63286;SDS011;49410;55.708;37.522;2022-07-23T02:32:12;9.85;;;4.80;;
63286;SDS011;49410;55.708;37.522;2022-07-23T02:34:38;10.15;;;5.07;;
63286;SDS011;49410;55.708;37.522;2022-07-23T02:37:03;8.27;;;4.75;;
63286;SDS011;49410;55.708;37.522;2022-07-23T02:39:29;8.15;;;4.72;;
63286;SDS011;49410;55.708;37.522;2022-07-23T02:41:55;9.90;;;5.32;;
63286;SDS011;49410;55.708;37.522;2022-07-23T02:44:20;10.98;;;5.00;;
63286;SDS011;49410;55.708;37.522;2022-07-23T02:46:45;8.98;;;5.40;;
63286;SDS011;49410;55.708;37.522;2022-07-23T02:49:11;10.55;;;5.68;;
63286;SDS011;49410;55.708;37.522;2022-07-23T02:51:36;10.52;;;5.60;;
63286;SDS011;49410;55.708;37.522;2022-07-23T02:54:02;12.95;;;5.20;;
63286;SDS011;49410;55.708;37.522;2022-07-23T02:56:28;10.18;;;6.22;;
63286;SDS011;49410;55.708;37.522;2022-07-23T02:58:53;10.20;;;5.00;;
63286;SDS011;49410;55.708;37.522;2022-07-23T03:01:19;12.77;;;5.38;;
63286;SDS011;49410;55.708;37.522;2022-07-23T03:03:44;8.75;;;5.15;;
63286;SDS011;49410;55.708;37.522;2022-07-23T03:06:10;8.65;;;5.03;;
63286;SDS011;49410;55.708;37.522;2022-07-23T03:08:35;11.80;;;5.82;;
63286;SDS011;49410;55.708;37.522;2022-07-23T03:11:01;10.05;;;4.93;;
63286;SDS011;49410;55.708;37.522;2022-07-23T03:13:26;10.45;;;6.25;;
63286;SDS011;49410;55.708;37.522;2022-07-23T03:15:52;9.63;;;5.50;;
63286;SDS011;49410;55.708;37.522;2022-07-23T03:18:18;14.15;;;5.57;;
63286;SDS011;49410;55.708;37.522;2022-07-23T03:20:43;9.05;;;5.15;;
63286;SDS011;49410;55.708;37.522;2022-07-23T03:23:09;14.30;;;6.00;;
63286;SDS011;49410;55.708;37.522;2022-07-23T03:25:34;10.85;;;6.45;;
63286;SDS011;49410;55.708;37.522;2022-07-23T03:28:00;10.85;;;5.32;;
63286;SDS011;49410;55.708;37.522;2022-07-23T03:30:25;13.10;;;5.57;;
63286;SDS011;49410;55.708;37.522;2022-07-23T03:32:51;17.60;;;5.57;;
63286;SDS011;49410;55.708;37.522;2022-07-23T03:35:16;11.18;;;5.72;;
63286;SDS011;49410;55.708;37.522;2022-07-23T03:37:42;14.02;;;5.30;;
63286;SDS011;49410;55.708;37.522;2022-07-23T03:40:07;11.40;;;5.55;;
63286;SDS011;49410;55.708;37.522;2022-07-23T03:42:33;11.32;;;5.82;;
63286;SDS011;49410;55.708;37.522;2022-07-23T03:44:58;11.95;;;5.65;;
63286;SDS011;49410;55.708;37.522;2022-07-23T03:47:24;10.73;;;5.45;;
63286;SDS011;49410;55.708;37.522;2022-07-23T03:49:49;10.85;;;5.55;;
63286;SDS011;49410;55.708;37.522;2022-07-23T03:52:15;12.00;;;5.65;;
63286;SDS011;49410;55.708;37.522;2022-07-23T03:54:40;11.52;;;5.32;;
63286;SDS011;49410;55.708;37.522;2022-07-23T03:57:05;11.93;;;6.03;;
63286;SDS011;49410;55.708;37.522;2022-07-23T03:59:31;9.98;;;5.40;;
63286;SDS011;49410;55.708;37.522;2022-07-23T04:01:56;11.73;;;5.40;;
63286;SDS011;49410;55.708;37.522;2022-07-23T04:04:22;11.52;;;5.57;;
63286;SDS011;49410;55.708;37.522;2022-07-23T04:06:47;10.88;;;5.93;;
63286;SDS011;49410;55.708;37.522;2022-07-23T04:09:13;10.48;;;5.93;;
63286;SDS011;49410;55.708;37.522;2022-07-23T04:11:38;11.43;;;5.63;;
63286;SDS011;49410;55.708;37.522;2022-07-23T04:14:04;9.25;;;5.10;;
63286;SDS011;49410;55.708;37.522;2022-07-23T04:16:29;10.85;;;5.40;;
63286;SDS011;49410;55.708;37.522;2022-07-23T04:18:56;12.07;;;5.68;;
63286;SDS011;49410;55.708;37.522;2022-07-23T04:21:22;12.77;;;5.63;;
63286;SDS011;49410;55.708;37.522;2022-07-23T04:23:48;12.25;;;5.75;;
63286;SDS011;49410;55.708;37.522;2022-07-23T04:26:13;8.02;;;4.93;;
63286;SDS011;49410;55.708;37.522;2022-07-23T04:28:39;9.27;;;5.57;;
63286;SDS011;49410;55.708;37.522;2022-07-23T04:31:05;10.10;;;5.25;;
63286;SDS011;49410;55.708;37.522;2022-07-23T04:33:30;10.82;;;5.63;;
63286;SDS011;49410;55.708;37.522;2022-07-23T04:35:56;11.48;;;5.80;;
63286;SDS011;49410;55.708;37.522;2022-07-23T04:38:21;10.75;;;5.55;;
63286;SDS011;49410;55.708;37.522;2022-07-23T04:40:47;11.40;;;5.55;;
63286;SDS011;49410;55.708;37.522;2022-07-23T04:43:12;12.73;;;5.55;;
63286;SDS011;49410;55.708;37.522;2022-07-23T04:45:38;13.25;;;5.50;;
63286;SDS011;49410;55.708;37.522;2022-07-23T04:48:03;12.20;;;5.18;;
63286;SDS011;49410;55.708;37.522;2022-07-23T04:50:29;11.88;;;5.28;;
63286;SDS011;49410;55.708;37.522;2022-07-23T04:52:54;12.13;;;5.85;;
63286;SDS011;49410;55.708;37.522;2022-07-23T04:55:20;13.05;;;5.85;;
63286;SDS011;49410;55.708;37.522;2022-07-23T04:57:45;9.05;;;5.65;;
63286;SDS011;49410;55.708;37.522;2022-07-23T05:00:11;9.95;;;5.53;;
63286;SDS011;49410;55.708;37.522;2022-07-23T05:02:36;9.00;;;5.10;;
63286;SDS011;49410;55.708;37.522;2022-07-23T05:05:02;9.82;;;5.38;;
63286;SDS011;49410;55.708;37.522;2022-07-23T05:07:28;10.32;;;5.82;;
63286;SDS011;49410;55.708;37.522;2022-07-23T05:09:53;12.75;;;5.82;;
63286;SDS011;49410;55.708;37.522;2022-07-23T05:12:18;10.30;;;5.40;;
63286;SDS011;49410;55.708;37.522;2022-07-23T05:14:44;9.60;;;5.60;;
63286;SDS011;49410;55.708;37.522;2022-07-23T05:17:09;10.30;;;5.65;;
63286;SDS011;49410;55.708;37.522;2022-07-23T05:19:35;10.60;;;5.80;;
63286;SDS011;49410;55.708;37.522;2022-07-23T05:22:00;13.15;;;6.05;;
63286;SDS011;49410;55.708;37.522;2022-07-23T05:24:26;11.85;;;5.80;;
63286;SDS011;49410;55.708;37.522;2022-07-23T05:26:51;11.98;;;6.00;;
63286;SDS011;49410;55.708;37.522;2022-07-23T05:29:17;13.27;;;6.20;;
63286;SDS011;49410;55.708;37.522;2022-07-23T05:31:42;10.65;;;5.63;;
63286;SDS011;49410;55.708;37.522;2022-07-23T05:34:08;11.95;;;5.90;;
63286;SDS011;49410;55.708;37.522;2022-07-23T05:36:33;11.27;;;5.97;;
63286;SDS011;49410;55.708;37.522;2022-07-23T05:38:59;8.82;;;5.78;;
63286;SDS011;49410;55.708;37.522;2022-07-23T05:41:24;12.25;;;6.15;;
63286;SDS011;49410;55.708;37.522;2022-07-23T05:43:50;12.07;;;5.78;;
63286;SDS011;49410;55.708;37.522;2022-07-23T05:46:15;11.38;;;6.20;;
63286;SDS011;49410;55.708;37.522;2022-07-23T05:48:41;14.07;;;6.20;;
63286;SDS011;49410;55.708;37.522;2022-07-23T05:51:07;10.68;;;6.00;;
63286;SDS011;49410;55.708;37.522;2022-07-23T05:53:33;11.85;;;6.57;;
63286;SDS011;49410;55.708;37.522;2022-07-23T05:56:00;14.65;;;6.13;;
63286;SDS011;49410;55.708;37.522;2022-07-23T05:58:26;16.58;;;6.22;;
63286;SDS011;49410;55.708;37.522;2022-07-23T06:00:52;13.05;;;5.75;;
63286;SDS011;49410;55.708;37.522;2022-07-23T06:03:17;10.27;;;6.50;;
63286;SDS011;49410;55.708;37.522;2022-07-23T06:05:43;11.18;;;6.53;;
63286;SDS011;49410;55.708;37.522;2022-07-23T06:08:08;14.25;;;6.35;;
63286;SDS011;49410;55.708;37.522;2022-07-23T06:10:34;11.95;;;6.13;;
63286;SDS011;49410;55.708;37.522;2022-07-23T06:12:59;11.68;;;6.10;;
63286;SDS011;49410;55.708;37.522;2022-07-23T06:15:25;12.70;;;6.63;;
63286;SDS011;49410;55.708;37.522;2022-07-23T06:17:50;10.95;;;6.57;;
63286;SDS011;49410;55.708;37.522;2022-07-23T06:20:16;9.95;;;6.22;;
63286;SDS011;49410;55.708;37.522;2022-07-23T06:22:41;9.75;;;5.72;;
63286;SDS011;49410;55.708;37.522;2022-07-23T06:25:07;14.80;;;6.07;;
63286;SDS011;49410;55.708;37.522;2022-07-23T06:27:33;10.75;;;6.68;;
63286;SDS011;49410;55.708;37.522;2022-07-23T06:29:58;14.38;;;6.80;;
63286;SDS011;49410;55.708;37.522;2022-07-23T06:32:24;9.90;;;6.10;;
63286;SDS011;49410;55.708;37.522;2022-07-23T06:34:49;11.63;;;5.88;;
63286;SDS011;49410;55.708;37.522;2022-07-23T06:37:15;11.57;;;6.03;;
63286;SDS011;49410;55.708;37.522;2022-07-23T06:39:41;13.93;;;6.32;;
63286;SDS011;49410;55.708;37.522;2022-07-23T06:42:07;12.30;;;5.68;;
63286;SDS011;49410;55.708;37.522;2022-07-23T06:44:32;12.32;;;5.72;;
63286;SDS011;49410;55.708;37.522;2022-07-23T06:46:58;13.50;;;6.30;;
63286;SDS011;49410;55.708;37.522;2022-07-23T06:49:23;12.68;;;5.78;;
63286;SDS011;49410;55.708;37.522;2022-07-23T06:51:49;10.48;;;5.88;;
63286;SDS011;49410;55.708;37.522;2022-07-23T06:54:14;10.75;;;5.40;;
63286;SDS011;49410;55.708;37.522;2022-07-23T06:56:40;12.80;;;5.43;;
63286;SDS011;49410;55.708;37.522;2022-07-23T06:59:06;10.30;;;5.35;;
63286;SDS011;49410;55.708;37.522;2022-07-23T07:01:32;8.75;;;4.90;;
63286;SDS011;49410;55.708;37.522;2022-07-23T07:03:57;12.65;;;5.90;;
63286;SDS011;49410;55.708;37.522;2022-07-23T07:06:23;13.38;;;5.55;;
63286;SDS011;49410;55.708;37.522;2022-07-23T07:08:48;10.15;;;5.45;;
63286;SDS011;49410;55.708;37.522;2022-07-23T07:11:13;13.15;;;5.65;;
63286;SDS011;49410;55.708;37.522;2022-07-23T07:13:39;8.40;;;5.13;;
63286;SDS011;49410;55.708;37.522;2022-07-23T07:16:05;11.77;;;5.78;;
63286;SDS011;49410;55.708;37.522;2022-07-23T07:18:30;11.93;;;5.30;;
63286;SDS011;49410;55.708;37.522;2022-07-23T07:20:56;14.02;;;5.70;;
63286;SDS011;49410;55.708;37.522;2022-07-23T07:23:22;9.57;;;5.88;;
63286;SDS011;49410;55.708;37.522;2022-07-23T07:25:48;11.10;;;5.65;;
63286;SDS011;49410;55.708;37.522;2022-07-23T07:28:13;11.98;;;5.88;;
63286;SDS011;49410;55.708;37.522;2022-07-23T07:30:39;11.00;;;5.53;;
63286;SDS011;49410;55.708;37.522;2022-07-23T07:33:05;11.38;;;5.28;;
63286;SDS011;49410;55.708;37.522;2022-07-23T07:35:31;7.97;;;4.95;;
63286;SDS011;49410;55.708;37.522;2022-07-23T07:37:58;9.38;;;5.18;;
63286;SDS011;49410;55.708;37.522;2022-07-23T07:40:24;9.27;;;5.10;;
63286;SDS011;49410;55.708;37.522;2022-07-23T07:42:50;11.07;;;5.05;;
63286;SDS011;49410;55.708;37.522;2022-07-23T07:45:19;11.80;;;5.50;;
63286;SDS011;49410;55.708;37.522;2022-07-23T07:47:45;9.25;;;5.50;;
63286;SDS011;49410;55.708;37.522;2022-07-23T07:50:11;8.65;;;5.25;;
63286;SDS011;49410;55.708;37.522;2022-07-23T07:52:37;8.98;;;5.32;;
63286;SDS011;49410;55.708;37.522;2022-07-23T07:55:03;8.13;;;4.88;;
63286;SDS011;49410;55.708;37.522;2022-07-23T07:57:29;11.25;;;5.70;;
63286;SDS011;49410;55.708;37.522;2022-07-23T07:59:55;12.48;;;5.85;;
63286;SDS011;49410;55.708;37.522;2022-07-23T08:02:21;15.25;;;6.07;;
63286;SDS011;49410;55.708;37.522;2022-07-23T08:04:46;10.40;;;5.85;;
63286;SDS011;49410;55.708;37.522;2022-07-23T08:07:12;9.63;;;5.43;;
63286;SDS011;49410;55.708;37.522;2022-07-23T08:09:38;8.77;;;5.57;;
63286;SDS011;49410;55.708;37.522;2022-07-23T08:12:03;8.70;;;5.43;;
63286;SDS011;49410;55.708;37.522;2022-07-23T08:14:29;14.50;;;6.18;;
63286;SDS011;49410;55.708;37.522;2022-07-23T08:16:54;10.68;;;5.90;;
63286;SDS011;49410;55.708;37.522;2022-07-23T08:19:20;12.02;;;5.72;;
63286;SDS011;49410;55.708;37.522;2022-07-23T08:21:45;9.77;;;5.50;;
63286;SDS011;49410;55.708;37.522;2022-07-23T08:24:11;10.18;;;6.35;;
63286;SDS011;49410;55.708;37.522;2022-07-23T08:26:39;9.52;;;5.80;;
63286;SDS011;49410;55.708;37.522;2022-07-23T08:29:05;12.23;;;5.88;;
63286;SDS011;49410;55.708;37.522;2022-07-23T08:31:31;10.05;;;6.30;;
63286;SDS011;49410;55.708;37.522;2022-07-23T08:33:58;12.13;;;5.50;;
63286;SDS011;49410;55.708;37.522;2022-07-23T08:36:27;11.90;;;6.47;;
63286;SDS011;49410;55.708;37.522;2022-07-23T08:38:57;11.88;;;6.20;;
63286;SDS011;49410;55.708;37.522;2022-07-23T08:41:24;9.90;;;6.28;;
63286;SDS011;49410;55.708;37.522;2022-07-23T08:43:49;12.85;;;6.18;;
63286;SDS011;49410;55.708;37.522;2022-07-23T08:46:15;11.30;;;6.07;;
63286;SDS011;49410;55.708;37.522;2022-07-23T08:48:44;12.98;;;6.35;;
63286;SDS011;49410;55.708;37.522;2022-07-23T08:51:13;10.55;;;6.30;;
63286;SDS011;49410;55.708;37.522;2022-07-23T08:53:38;11.35;;;6.82;;
63286;SDS011;49410;55.708;37.522;2022-07-23T08:56:06;11.02;;;6.45;;
63286;SDS011;49410;55.708;37.522;2022-07-23T08:58:32;13.73;;;6.97;;
63286;SDS011;49410;55.708;37.522;2022-07-23T09:00:58;11.20;;;6.40;;
63286;SDS011;49410;55.708;37.522;2022-07-23T09:03:34;10.02;;;6.10;;
63286;SDS011;49410;55.708;37.522;2022-07-23T09:06:01;10.38;;;6.20;;
63286;SDS011;49410;55.708;37.522;2022-07-23T09:08:40;11.80;;;6.40;;
63286;SDS011;49410;55.708;37.522;2022-07-23T09:11:08;12.65;;;6.32;;
63286;SDS011;49410;55.708;37.522;2022-07-23T09:13:50;11.30;;;6.40;;
63286;SDS011;49410;55.708;37.522;2022-07-23T09:16:24;10.63;;;6.35;;
63286;SDS011;49410;55.708;37.522;2022-07-23T09:21:33;12.07;;;6.00;;
63286;SDS011;49410;55.708;37.522;2022-07-23T09:26:37;9.90;;;6.80;;
63286;SDS011;49410;55.708;37.522;2022-07-23T09:32:02;11.68;;;6.45;;
63286;SDS011;49410;55.708;37.522;2022-07-23T09:34:33;12.48;;;6.88;;
63286;SDS011;49410;55.708;37.522;2022-07-23T09:37:16;10.75;;;6.55;;
63286;SDS011;49410;55.708;37.522;2022-07-23T09:39:44;10.65;;;6.68;;
63286;SDS011;49410;55.708;37.522;2022-07-23T09:42:21;13.32;;;7.80;;
63286;SDS011;49410;55.708;37.522;2022-07-23T09:44:50;11.88;;;7.03;;
63286;SDS011;49410;55.708;37.522;2022-07-23T09:47:18;12.27;;;6.47;;
63286;SDS011;49410;55.708;37.522;2022-07-23T09:50:07;10.75;;;6.28;;
63286;SDS011;49410;55.708;37.522;2022-07-23T09:52:44;9.93;;;6.47;;
63286;SDS011;49410;55.708;37.522;2022-07-23T09:55:13;10.10;;;6.68;;
63286;SDS011;49410;55.708;37.522;2022-07-23T09:57:40;13.63;;;6.50;;
63286;SDS011;49410;55.708;37.522;2022-07-23T10:00:07;9.45;;;6.20;;
63286;SDS011;49410;55.708;37.522;2022-07-23T10:02:35;10.45;;;6.95;;
63286;SDS011;49410;55.708;37.522;2022-07-23T10:05:02;11.38;;;7.20;;
63286;SDS011;49410;55.708;37.522;2022-07-23T10:07:28;11.13;;;6.85;;
63286;SDS011;49410;55.708;37.522;2022-07-23T10:09:58;12.93;;;7.00;;
63286;SDS011;49410;55.708;37.522;2022-07-23T10:12:25;11.38;;;6.88;;
63286;SDS011;49410;55.708;37.522;2022-07-23T10:15:23;10.77;;;6.95;;
63286;SDS011;49410;55.708;37.522;2022-07-23T10:17:50;11.63;;;6.82;;
63286;SDS011;49410;55.708;37.522;2022-07-23T10:20:16;12.75;;;6.72;;
63286;SDS011;49410;55.708;37.522;2022-07-23T10:22:54;11.52;;;6.38;;
63286;SDS011;49410;55.708;37.522;2022-07-23T10:25:32;12.73;;;7.03;;
63286;SDS011;49410;55.708;37.522;2022-07-23T10:28:15;10.25;;;6.82;;
63286;SDS011;49410;55.708;37.522;2022-07-23T10:39:15;11.02;;;6.63;;
63286;SDS011;49410;55.708;37.522;2022-07-23T10:41:47;15.07;;;7.15;;
63286;SDS011;49410;55.708;37.522;2022-07-23T10:47:01;11.02;;;7.13;;
63286;SDS011;49410;55.708;37.522;2022-07-23T10:49:31;11.13;;;6.93;;
63286;SDS011;49410;55.708;37.522;2022-07-23T10:54:39;12.18;;;7.00;;
63286;SDS011;49410;55.708;37.522;2022-07-23T10:57:06;12.18;;;7.03;;
63286;SDS011;49410;55.708;37.522;2022-07-23T11:02:28;10.50;;;7.00;;
63286;SDS011;49410;55.708;37.522;2022-07-23T11:04:58;10.40;;;6.53;;
63286;SDS011;49410;55.708;37.522;2022-07-23T11:07:26;10.15;;;6.93;;
63286;SDS011;49410;55.708;37.522;2022-07-23T11:09:52;11.65;;;6.97;;
63286;SDS011;49410;55.708;37.522;2022-07-23T11:18:09;11.38;;;7.20;;
63286;SDS011;49410;55.708;37.522;2022-07-23T11:20:33;10.98;;;6.60;;
63286;SDS011;49410;55.708;37.522;2022-07-23T11:22:59;9.95;;;6.53;;
63286;SDS011;49410;55.708;37.522;2022-07-23T11:27:51;20.50;;;13.00;;
63286;SDS011;49410;55.708;37.522;2022-07-23T11:32:52;11.63;;;7.05;;
63286;SDS011;49410;55.708;37.522;2022-07-23T11:35:33;11.35;;;6.65;;
63286;SDS011;49410;55.708;37.522;2022-07-23T11:38:42;12.63;;;7.45;;
63286;SDS011;49410;55.708;37.522;2022-07-23T11:40:52;17.15;;;10.00;;
63286;SDS011;49410;55.708;37.522;2022-07-23T11:43:19;11.30;;;7.50;;
63286;SDS011;49410;55.708;37.522;2022-07-23T11:45:48;11.10;;;7.03;;
63286;SDS011;49410;55.708;37.522;2022-07-23T11:48:19;13.73;;;7.43;;
63286;SDS011;49410;55.708;37.522;2022-07-23T11:50:46;13.25;;;7.22;;
63286;SDS011;49410;55.708;37.522;2022-07-23T11:53:12;10.82;;;7.07;;
63286;SDS011;49410;55.708;37.522;2022-07-23T11:55:38;10.70;;;7.00;;
63286;SDS011;49410;55.708;37.522;2022-07-23T11:58:04;11.05;;;6.75;;
63286;SDS011;49410;55.708;37.522;2022-07-23T12:00:30;11.30;;;7.05;;
63286;SDS011;49410;55.708;37.522;2022-07-23T12:03:01;11.30;;;6.68;;
63286;SDS011;49410;55.708;37.522;2022-07-23T12:05:29;11.43;;;6.65;;
63286;SDS011;49410;55.708;37.522;2022-07-23T12:07:57;13.07;;;7.20;;
63286;SDS011;49410;55.708;37.522;2022-07-23T12:12:55;11.00;;;6.57;;
63286;SDS011;49410;55.708;37.522;2022-07-23T12:15:23;9.77;;;6.18;;
63286;SDS011;49410;55.708;37.522;2022-07-23T12:17:50;9.45;;;6.10;;
63286;SDS011;49410;55.708;37.522;2022-07-23T12:20:24;12.02;;;6.97;;
63286;SDS011;49410;55.708;37.522;2022-07-23T12:22:52;11.77;;;6.82;;
63286;SDS011;49410;55.708;37.522;2022-07-23T12:25:21;11.68;;;6.90;;
63286;SDS011;49410;55.708;37.522;2022-07-23T12:30:52;11.73;;;6.55;;
63286;SDS011;49410;55.708;37.522;2022-07-23T12:33:23;10.32;;;6.53;;
63286;SDS011;49410;55.708;37.522;2022-07-23T12:36:00;11.93;;;7.07;;
63286;SDS011;49410;55.708;37.522;2022-07-23T12:38:36;12.57;;;6.75;;
63286;SDS011;49410;55.708;37.522;2022-07-23T12:41:06;10.68;;;6.95;;
63286;SDS011;49410;55.708;37.522;2022-07-23T12:43:32;10.45;;;6.65;;
63286;SDS011;49410;55.708;37.522;2022-07-23T12:48:35;12.48;;;7.30;;
63286;SDS011;49410;55.708;37.522;2022-07-23T12:53:43;11.82;;;6.80;;
63286;SDS011;49410;55.708;37.522;2022-07-23T12:56:13;10.40;;;6.72;;
63286;SDS011;49410;55.708;37.522;2022-07-23T12:58:45;12.75;;;7.25;;
63286;SDS011;49410;55.708;37.522;2022-07-23T13:04:01;11.48;;;6.97;;
63286;SDS011;49410;55.708;37.522;2022-07-23T13:06:46;12.50;;;6.75;;
63286;SDS011;49410;55.708;37.522;2022-07-23T13:09:16;9.50;;;6.00;;
63286;SDS011;49410;55.708;37.522;2022-07-23T13:11:43;10.60;;;6.63;;
63286;SDS011;49410;55.708;37.522;2022-07-23T13:14:10;11.25;;;6.47;;
63286;SDS011;49410;55.708;37.522;2022-07-23T13:16:36;10.57;;;6.53;;
63286;SDS011;49410;55.708;37.522;2022-07-23T13:19:01;11.55;;;7.25;;
63286;SDS011;49410;55.708;37.522;2022-07-23T13:21:28;10.75;;;6.63;;
63286;SDS011;49410;55.708;37.522;2022-07-23T13:23:54;11.13;;;6.55;;
63286;SDS011;49410;55.708;37.522;2022-07-23T13:26:21;12.80;;;6.55;;
63286;SDS011;49410;55.708;37.522;2022-07-23T13:28:47;11.25;;;6.55;;
63286;SDS011;49410;55.708;37.522;2022-07-23T13:31:13;11.23;;;6.50;;
63286;SDS011;49410;55.708;37.522;2022-07-23T13:33:39;10.07;;;6.20;;
63286;SDS011;49410;55.708;37.522;2022-07-23T13:36:05;10.88;;;6.28;;
63286;SDS011;49410;55.708;37.522;2022-07-23T13:38:30;12.38;;;6.07;;
63286;SDS011;49410;55.708;37.522;2022-07-23T13:40:56;10.40;;;5.97;;
63286;SDS011;49410;55.708;37.522;2022-07-23T13:43:22;11.23;;;6.65;;
63286;SDS011;49410;55.708;37.522;2022-07-23T13:45:50;10.05;;;6.05;;
63286;SDS011;49410;55.708;37.522;2022-07-23T13:48:16;10.32;;;6.85;;
63286;SDS011;49410;55.708;37.522;2022-07-23T13:50:42;10.75;;;6.20;;
63286;SDS011;49410;55.708;37.522;2022-07-23T13:53:14;9.90;;;6.50;;
63286;SDS011;49410;55.708;37.522;2022-07-23T13:55:41;10.30;;;6.43;;
63286;SDS011;49410;55.708;37.522;2022-07-23T13:58:07;10.95;;;6.40;;
63286;SDS011;49410;55.708;37.522;2022-07-23T14:00:35;9.40;;;5.95;;
63286;SDS011;49410;55.708;37.522;2022-07-23T14:03:02;9.40;;;6.28;;
63286;SDS011;49410;55.708;37.522;2022-07-23T14:05:29;11.80;;;6.32;;
63286;SDS011;49410;55.708;37.522;2022-07-23T14:07:54;10.90;;;7.05;;
63286;SDS011;49410;55.708;37.522;2022-07-23T14:10:21;10.50;;;6.85;;
63286;SDS011;49410;55.708;37.522;2022-07-23T14:12:48;9.18;;;6.45;;
63286;SDS011;49410;55.708;37.522;2022-07-23T14:15:14;9.98;;;6.43;;
63286;SDS011;49410;55.708;37.522;2022-07-23T14:17:41;10.85;;;6.35;;
63286;SDS011;49410;55.708;37.522;2022-07-23T14:20:07;11.68;;;6.32;;
63286;SDS011;49410;55.708;37.522;2022-07-23T14:22:35;10.57;;;6.38;;
63286;SDS011;49410;55.708;37.522;2022-07-23T14:25:01;10.27;;;6.65;;
63286;SDS011;49410;55.708;37.522;2022-07-23T14:27:28;11.18;;;6.55;;
63286;SDS011;49410;55.708;37.522;2022-07-23T14:29:54;9.70;;;6.30;;
63286;SDS011;49410;55.708;37.522;2022-07-23T14:32:20;10.60;;;6.65;;
63286;SDS011;49410;55.708;37.522;2022-07-23T14:34:46;9.45;;;6.13;;
63286;SDS011;49410;55.708;37.522;2022-07-23T14:37:11;10.43;;;6.47;;
63286;SDS011;49410;55.708;37.522;2022-07-23T14:39:40;9.95;;;5.80;;
63286;SDS011;49410;55.708;37.522;2022-07-23T14:42:07;10.77;;;6.28;;
63286;SDS011;49410;55.708;37.522;2022-07-23T14:44:33;9.20;;;6.18;;
63286;SDS011;49410;55.708;37.522;2022-07-23T14:47:00;12.13;;;6.22;;
63286;SDS011;49410;55.708;37.522;2022-07-23T14:49:28;10.43;;;6.00;;
63286;SDS011;49410;55.708;37.522;2022-07-23T14:51:53;9.57;;;6.10;;
63286;SDS011;49410;55.708;37.522;2022-07-23T14:54:19;11.35;;;6.35;;
63286;SDS011;49410;55.708;37.522;2022-07-23T14:56:45;9.80;;;6.20;;
63286;SDS011;49410;55.708;37.522;2022-07-23T14:59:11;9.48;;;6.72;;
63286;SDS011;49410;55.708;37.522;2022-07-23T15:01:36;10.00;;;6.20;;
63286;SDS011;49410;55.708;37.522;2022-07-23T15:04:03;11.65;;;5.85;;
63286;SDS011;49410;55.708;37.522;2022-07-23T15:06:30;8.85;;;5.75;;
63286;SDS011;49410;55.708;37.522;2022-07-23T15:08:55;11.38;;;5.78;;
63286;SDS011;49410;55.708;37.522;2022-07-23T15:11:21;10.18;;;5.85;;